Janiopolis, Brazil
Current Conditions -  °F | °C
As of 4:00 PM on Thursday 27 Nov 2014 (Local Time) from SBMG Reporting Station
Thunderstorm Thunderstorm  
Wind Chill: 88°   Ceiling: Unl
Heat Index: 93°   Visibility: 6mi
Dew Point: 70°   Wind: 2mph
Humidity: 55%   Direction: 340°NNW
Pressure: 29.83"   Gusts: NA
Location:  24.15°S, 52.78°W
Report Text: SBMG 271800Z 34002KT 9999 VCSH VCTS SCT040 FEW050CB 31/21 Q1010
Loading
Personal Weather Stations






























Interactive Weather Map New forecast layout! Learn more

10-Day Weather Forecast

Advertisements
Track Severe Weather on mobile